sensor_id;sensor_type;location;lat;lon;timestamp;P1;durP1;ratioP1;P2;durP2;ratioP2
55150;SDS011;41041;43.162;20.538;2022-09-03T00:00:24;11.48;;;5.57;;
55150;SDS011;41041;43.162;20.538;2022-09-03T00:03:01;7.63;;;5.55;;
55150;SDS011;41041;43.162;20.538;2022-09-03T00:05:47;8.40;;;5.40;;
55150;SDS011;41041;43.162;20.538;2022-09-03T00:13:40;9.48;;;5.90;;
55150;SDS011;41041;43.162;20.538;2022-09-03T00:16:11;8.55;;;6.00;;
55150;SDS011;41041;43.162;20.538;2022-09-03T00:19:15;9.02;;;5.70;;
55150;SDS011;41041;43.162;20.538;2022-09-03T00:21:46;10.23;;;5.82;;
55150;SDS011;41041;43.162;20.538;2022-09-03T00:24:18;9.25;;;5.95;;
55150;SDS011;41041;43.162;20.538;2022-09-03T00:26:49;12.18;;;6.28;;
55150;SDS011;41041;43.162;20.538;2022-09-03T00:29:19;11.90;;;6.10;;
55150;SDS011;41041;43.162;20.538;2022-09-03T00:31:52;11.30;;;5.70;;
55150;SDS011;41041;43.162;20.538;2022-09-03T00:34:26;14.57;;;5.70;;
55150;SDS011;41041;43.162;20.538;2022-09-03T00:36:55;9.75;;;5.57;;
55150;SDS011;41041;43.162;20.538;2022-09-03T00:39:23;8.57;;;5.60;;
55150;SDS011;41041;43.162;20.538;2022-09-03T00:52:48;15.63;;;5.60;;
55150;SDS011;41041;43.162;20.538;2022-09-03T01:00:34;10.30;;;5.93;;
55150;SDS011;41041;43.162;20.538;2022-09-03T01:11:03;14.65;;;5.43;;
55150;SDS011;41041;43.162;20.538;2022-09-03T01:16:49;10.25;;;5.85;;
55150;SDS011;41041;43.162;20.538;2022-09-03T01:30:39;8.32;;;5.68;;
55150;SDS011;41041;43.162;20.538;2022-09-03T01:39:07;9.32;;;6.05;;
55150;SDS011;41041;43.162;20.538;2022-09-03T01:53:22;11.93;;;6.90;;
55150;SDS011;41041;43.162;20.538;2022-09-03T02:01:26;12.02;;;7.57;;
55150;SDS011;41041;43.162;20.538;2022-09-03T02:03:58;13.18;;;7.10;;
55150;SDS011;41041;43.162;20.538;2022-09-03T02:06:25;14.95;;;7.15;;
55150;SDS011;41041;43.162;20.538;2022-09-03T02:08:52;12.65;;;7.10;;
55150;SDS011;41041;43.162;20.538;2022-09-03T02:11:17;10.63;;;7.10;;
55150;SDS011;41041;43.162;20.538;2022-09-03T02:13:44;12.13;;;7.20;;
55150;SDS011;41041;43.162;20.538;2022-09-03T02:16:17;14.15;;;7.57;;
55150;SDS011;41041;43.162;20.538;2022-09-03T02:18:46;11.07;;;7.20;;
55150;SDS011;41041;43.162;20.538;2022-09-03T02:21:17;14.65;;;7.00;;
55150;SDS011;41041;43.162;20.538;2022-09-03T02:23:45;12.35;;;6.63;;
55150;SDS011;41041;43.162;20.538;2022-09-03T02:26:13;10.55;;;7.30;;
55150;SDS011;41041;43.162;20.538;2022-09-03T02:28:42;10.60;;;6.90;;
55150;SDS011;41041;43.162;20.538;2022-09-03T02:31:08;11.60;;;7.22;;
55150;SDS011;41041;43.162;20.538;2022-09-03T02:33:36;14.30;;;7.15;;
55150;SDS011;41041;43.162;20.538;2022-09-03T02:36:05;10.18;;;6.93;;
55150;SDS011;41041;43.162;20.538;2022-09-03T02:38:32;11.35;;;6.90;;
55150;SDS011;41041;43.162;20.538;2022-09-03T02:40:59;12.63;;;6.53;;
55150;SDS011;41041;43.162;20.538;2022-09-03T02:46:23;9.23;;;6.50;;
55150;SDS011;41041;43.162;20.538;2022-09-03T02:48:53;11.95;;;6.85;;
55150;SDS011;41041;43.162;20.538;2022-09-03T02:51:20;13.00;;;6.38;;
55150;SDS011;41041;43.162;20.538;2022-09-03T02:53:57;15.50;;;7.40;;
55150;SDS011;41041;43.162;20.538;2022-09-03T02:56:22;11.57;;;7.47;;
55150;SDS011;41041;43.162;20.538;2022-09-03T02:58:51;12.57;;;7.22;;
55150;SDS011;41041;43.162;20.538;2022-09-03T03:03:48;11.57;;;6.68;;
55150;SDS011;41041;43.162;20.538;2022-09-03T03:06:14;11.48;;;7.28;;
55150;SDS011;41041;43.162;20.538;2022-09-03T03:08:42;9.82;;;7.03;;
55150;SDS011;41041;43.162;20.538;2022-09-03T03:11:08;10.25;;;6.38;;
55150;SDS011;41041;43.162;20.538;2022-09-03T03:13:33;19.10;;;6.88;;
55150;SDS011;41041;43.162;20.538;2022-09-03T03:16:01;10.60;;;6.88;;
55150;SDS011;41041;43.162;20.538;2022-09-03T03:18:30;9.52;;;6.70;;
55150;SDS011;41041;43.162;20.538;2022-09-03T03:21:03;8.95;;;6.30;;
55150;SDS011;41041;43.162;20.538;2022-09-03T03:26:10;11.20;;;6.65;;
55150;SDS011;41041;43.162;20.538;2022-09-03T03:28:37;9.07;;;6.60;;
55150;SDS011;41041;43.162;20.538;2022-09-03T03:31:09;10.85;;;6.45;;
55150;SDS011;41041;43.162;20.538;2022-09-03T03:33:37;11.20;;;7.07;;
55150;SDS011;41041;43.162;20.538;2022-09-03T03:36:04;13.07;;;7.20;;
55150;SDS011;41041;43.162;20.538;2022-09-03T03:38:31;10.48;;;7.18;;
55150;SDS011;41041;43.162;20.538;2022-09-03T03:40:57;12.32;;;7.10;;
55150;SDS011;41041;43.162;20.538;2022-09-03T03:43:22;12.70;;;6.90;;
55150;SDS011;41041;43.162;20.538;2022-09-03T03:45:55;11.00;;;7.00;;
55150;SDS011;41041;43.162;20.538;2022-09-03T03:48:22;13.48;;;7.22;;
55150;SDS011;41041;43.162;20.538;2022-09-03T03:50:49;10.35;;;7.28;;
55150;SDS011;41041;43.162;20.538;2022-09-03T03:53:15;12.38;;;7.18;;
55150;SDS011;41041;43.162;20.538;2022-09-03T03:55:41;10.75;;;6.82;;
55150;SDS011;41041;43.162;20.538;2022-09-03T03:58:07;14.48;;;7.32;;
55150;SDS011;41041;43.162;20.538;2022-09-03T04:00:32;16.77;;;7.10;;
55150;SDS011;41041;43.162;20.538;2022-09-03T04:03:05;14.30;;;6.80;;
55150;SDS011;41041;43.162;20.538;2022-09-03T04:05:31;12.88;;;7.43;;
55150;SDS011;41041;43.162;20.538;2022-09-03T04:07:59;14.68;;;6.88;;
55150;SDS011;41041;43.162;20.538;2022-09-03T04:10:26;13.80;;;7.13;;
55150;SDS011;41041;43.162;20.538;2022-09-03T04:12:55;11.43;;;6.82;;
55150;SDS011;41041;43.162;20.538;2022-09-03T04:15:22;14.07;;;6.18;;
55150;SDS011;41041;43.162;20.538;2022-09-03T04:17:52;12.23;;;6.70;;
55150;SDS011;41041;43.162;20.538;2022-09-03T04:20:19;9.30;;;6.63;;
55150;SDS011;41041;43.162;20.538;2022-09-03T04:22:44;12.93;;;6.50;;
55150;SDS011;41041;43.162;20.538;2022-09-03T04:25:10;13.63;;;6.15;;
55150;SDS011;41041;43.162;20.538;2022-09-03T04:27:36;15.25;;;6.20;;
55150;SDS011;41041;43.162;20.538;2022-09-03T04:30:02;14.98;;;6.88;;
